Time;durP1;ratioP1;P1;durP2;ratioP2;P2;SDS_P1;SDS_P2;PMS_P1;PMS_P2;Temp;Humidity;BMP_temperature;BMP_pressure;BME280_temperature;BME280_humidity;BME280_pressure;Samples;Min_cycle;Max_cycle;Signal;HPM_P1;HPM_P2
2022/10/23 00:01:37;;;;;;;4.57;3.40;;;12.40;99.90;;;;;;5068969;28;20413;-71
2022/10/23 00:04:06;;;;;;;7.33;4.33;;;12.30;99.90;;;;;;5053841;28;20171;-70
2022/10/23 00:06:34;;;;;;;9.20;4.57;;;12.40;99.90;;;;;;5054652;28;20405;-69
2022/10/23 00:09:00;;;;;;;5.93;5.20;;;12.40;99.90;;;;;;5054972;28;20435;-69
2022/10/23 00:11:28;;;;;;;5.17;4.60;;;12.40;99.90;;;;;;5059524;28;20455;-70
2022/10/23 00:13:57;;;;;;;7.87;5.30;;;12.30;99.90;;;;;;5075808;28;20397;-70
2022/10/23 00:16:22;;;;;;;9.77;5.27;;;12.30;99.90;;;;;;5075927;28;20401;-70
2022/10/23 00:18:48;;;;;;;9.90;4.20;;;12.30;99.90;;;;;;5076160;28;20805;-70
2022/10/23 00:21:15;;;;;;;7.87;4.50;;;12.20;99.90;;;;;;5058956;28;20170;-69
2022/10/23 00:23:42;;;;;;;11.93;5.47;;;12.20;99.90;;;;;;5054608;28;20262;-69
2022/10/23 00:26:10;;;;;;;6.47;4.80;;;12.10;99.90;;;;;;5055529;28;20421;-70
2022/10/23 00:28:36;;;;;;;10.67;5.47;;;12.10;99.90;;;;;;5055500;28;20428;-69
2022/10/23 00:31:04;;;;;;;9.40;5.40;;;12.00;99.90;;;;;;5070032;28;20490;-69
2022/10/23 00:33:30;;;;;;;7.97;4.67;;;12.10;99.90;;;;;;5075642;28;20731;-70
2022/10/23 00:35:56;;;;;;;6.37;5.03;;;12.00;99.90;;;;;;5075197;28;20407;-69
2022/10/23 00:38:21;;;;;;;6.97;4.47;;;12.10;99.90;;;;;;5075779;28;20416;-70
2022/10/23 00:40:47;;;;;;;8.97;6.40;;;12.10;99.90;;;;;;5060315;28;20170;-70
2022/10/23 00:43:22;;;;;;;6.60;4.90;;;12.00;99.90;;;;;;5055579;28;20249;-70
2022/10/23 00:45:48;;;;;;;8.10;6.17;;;12.00;99.90;;;;;;5054940;28;20217;-69
2022/10/23 00:48:15;;;;;;;6.47;5.17;;;12.10;99.90;;;;;;5052799;28;20950;-70
2022/10/23 00:50:41;;;;;;;11.10;5.90;;;12.00;99.90;;;;;;5067819;28;20201;-70
2022/10/23 00:53:08;;;;;;;13.07;5.13;;;12.00;99.90;;;;;;5074140;28;20397;-69
2022/10/23 00:55:35;;;;;;;5.70;4.67;;;12.10;99.90;;;;;;5073831;28;20434;-69
2022/10/23 00:58:00;;;;;;;8.27;5.10;;;12.10;99.90;;;;;;5073945;28;20520;-69
2022/10/23 01:00:45;;;;;;;8.97;5.53;;;12.00;99.90;;;;;;5073557;28;20496;-69
2022/10/23 01:03:13;;;;;;;6.83;4.60;;;12.10;99.90;;;;;;5069077;28;20166;-69
2022/10/23 01:05:52;;;;;;;10.93;4.87;;;12.00;99.90;;;;;;5073413;28;20483;-69
2022/10/23 01:08:54;;;;;;;5.93;4.53;;;12.10;99.90;;;;;;5073886;28;20501;-69
2022/10/23 01:11:41;;;;;;;7.33;5.37;;;12.10;99.90;;;;;;5072976;28;20452;-70
2022/10/23 01:14:16;;;;;;;10.03;5.03;;;12.20;99.90;;;;;;5064092;28;20428;-69
2022/10/23 01:17:11;;;;;;;7.00;4.77;;;12.10;99.90;;;;;;5053639;28;20393;-69
2022/10/23 01:19:41;;;;;;;4.83;4.30;;;12.10;99.90;;;;;;5054709;28;20436;-69
2022/10/23 01:22:29;;;;;;;6.73;4.27;;;12.10;99.90;;;;;;5053558;28;20428;-69
2022/10/23 01:24:57;;;;;;;6.83;4.33;;;12.20;99.90;;;;;;5054376;28;20397;-69
2022/10/23 01:27:59;;;;;;;6.13;4.77;;;12.20;99.90;;;;;;5073558;28;20454;-69
2022/10/23 01:30:24;;;;;;;6.80;4.53;;;12.10;99.90;;;;;;5071929;28;20920;-69
2022/10/23 01:32:55;;;;;;;8.47;4.27;;;12.10;99.90;;;;;;5073284;28;20412;-69
2022/10/23 01:35:24;;;;;;;5.90;4.03;;;12.20;99.90;;;;;;5073122;28;20169;-69
2022/10/23 01:38:18;;;;;;;14.23;4.60;;;12.20;99.90;;;;;;5063701;28;20995;-69
2022/10/23 01:40:50;;;;;;;5.07;3.97;;;12.10;99.90;;;;;;5053071;28;20425;-69
2022/10/23 01:43:21;;;;;;;5.67;4.27;;;12.20;99.90;;;;;;5053176;28;20463;-69
2022/10/23 01:45:52;;;;;;;5.23;4.60;;;12.20;99.90;;;;;;5052572;28;20405;-70
2022/10/23 01:48:23;;;;;;;5.80;3.90;;;12.10;99.90;;;;;;5053049;28;20504;-71
2022/10/23 01:50:51;;;;;;;8.33;3.80;;;12.10;99.90;;;;;;5069498;28;20486;-70
2022/10/23 01:53:19;;;;;;;4.07;3.50;;;12.10;99.90;;;;;;5033046;28;20398;-69
2022/10/23 01:55:46;;;;;;;6.47;3.90;;;12.10;99.90;;;;;;5031390;28;20846;-70
2022/10/23 01:58:13;;;;;;;4.50;3.87;;;12.10;99.90;;;;;;5051763;28;20435;-69
2022/10/23 02:00:40;;;;;;;8.27;3.37;;;12.10;99.90;;;;;;5052819;28;20408;-70
2022/10/23 02:03:08;;;;;;;4.67;3.77;;;12.10;99.90;;;;;;5052717;28;20414;-70
2022/10/23 02:05:34;;;;;;;7.90;3.03;;;12.10;99.90;;;;;;5051277;28;20916;-70
2022/10/23 02:08:00;;;;;;;3.80;2.80;;;12.20;99.90;;;;;;5060533;28;20471;-70
2022/10/23 02:10:33;;;;;;;7.37;3.50;;;12.20;99.90;;;;;;5072575;28;20959;-70
2022/10/23 02:13:07;;;;;;;4.37;3.13;;;12.20;99.90;;;;;;5068923;28;20409;-70
2022/10/23 02:16:09;;;;;;;5.00;3.60;;;12.20;99.90;;;;;;5072171;28;20408;-70
2022/10/23 02:18:50;;;;;;;5.67;3.83;;;12.20;99.90;;;;;;5072663;28;20456;-69
2022/10/23 02:21:27;;;;;;;4.63;3.70;;;12.20;99.90;;;;;;5054358;28;20420;-69
2022/10/23 02:23:58;;;;;;;6.33;3.60;;;12.20;99.90;;;;;;5052469;28;20486;-69
2022/10/23 02:26:33;;;;;;;20.23;3.80;;;12.20;99.90;;;;;;5053679;28;20495;-69
2022/10/23 02:29:11;;;;;;;4.83;3.57;;;12.20;99.90;;;;;;5053782;28;20992;-69
2022/10/23 02:31:37;;;;;;;5.90;4.10;;;12.30;99.90;;;;;;5057935;28;20585;-70
2022/10/23 02:34:03;;;;;;;9.43;3.90;;;12.30;99.90;;;;;;5073723;28;20423;-70
2022/10/23 02:36:29;;;;;;;4.33;3.90;;;12.30;99.90;;;;;;5073590;28;20428;-69
2022/10/23 02:38:54;;;;;;;7.67;4.33;;;12.30;99.90;;;;;;5073431;28;20269;-70
2022/10/23 02:41:25;;;;;;;8.50;4.60;;;12.30;99.90;;;;;;5072210;28;20409;-69
2022/10/23 02:44:16;;;;;;;9.17;3.40;;;12.30;99.90;;;;;;5067445;28;20175;-69
2022/10/23 02:46:44;;;;;;;5.77;3.70;;;12.40;99.90;;;;;;5053244;28;20398;-70
2022/10/23 02:49:45;;;;;;;6.63;3.93;;;12.40;99.90;;;;;;5085725;28;20449;-69
2022/10/23 02:52:23;;;;;;;6.77;3.43;;;12.40;99.90;;;;;;5053473;28;20513;-69
2022/10/23 02:55:06;;;;;;;4.70;3.20;;;12.40;99.90;;;;;;5052898;28;20412;-70
2022/10/23 02:57:45;;;;;;;9.43;3.70;;;12.40;99.90;;;;;;5072247;28;20413;-69
2022/10/23 03:00:16;;;;;;;4.40;2.87;;;12.40;99.90;;;;;;5073206;28;20915;-69
2022/10/23 03:03:00;;;;;;;8.53;3.30;;;12.40;99.90;;;;;;5073316;28;20408;-69
2022/10/23 03:05:34;;;;;;;6.23;2.83;;;12.40;99.90;;;;;;5071733;28;20411;-70
2022/10/23 03:08:02;;;;;;;4.53;2.60;;;12.30;99.90;;;;;;5066433;28;20451;-69
2022/10/23 03:10:28;;;;;;;6.90;3.47;;;12.30;99.90;;;;;;5053088;28;20393;-70
2022/10/23 03:12:53;;;;;;;3.73;3.10;;;12.30;99.90;;;;;;5052023;28;20405;-69
2022/10/23 03:15:19;;;;;;;4.60;3.37;;;12.30;99.90;;;;;;5051418;28;20167;-69
2022/10/23 03:17:44;;;;;;;3.70;3.17;;;12.30;99.90;;;;;;5051773;28;20292;-69
2022/10/23 03:20:10;;;;;;;15.87;4.30;;;12.40;99.90;;;;;;5061101;28;20194;-69
2022/10/23 03:22:36;;;;;;;10.10;5.17;;;12.40;99.90;;;;;;5071690;28;20499;-69
2022/10/23 03:25:02;;;;;;;4.40;2.90;;;12.40;99.90;;;;;;5072073;28;20428;-69
2022/10/23 03:27:27;;;;;;;5.80;3.27;;;12.40;99.90;;;;;;5056069;28;20170;-70
2022/10/23 03:29:53;;;;;;;6.70;3.80;;;12.40;99.90;;;;;;5055556;28;20417;-69
2022/10/23 03:32:18;;;;;;;4.03;3.60;;;12.40;99.90;;;;;;5065560;28;20240;-69
2022/10/23 03:34:44;;;;;;;7.20;3.83;;;12.30;99.90;;;;;;5075256;28;20732;-69
2022/10/23 03:37:10;;;;;;;9.50;3.30;;;12.30;99.90;;;;;;5075585;28;20162;-69
2022/10/23 03:39:35;;;;;;;6.37;4.30;;;12.40;99.90;;;;;;5075501;28;20185;-69
2022/10/23 03:42:01;;;;;;;9.53;4.70;;;12.30;99.90;;;;;;5075464;28;20228;-69
2022/10/23 03:44:26;;;;;;;4.83;3.40;;;12.30;99.90;;;;;;5066003;28;20240;-69
2022/10/23 03:46:52;;;;;;;9.77;3.70;;;12.30;99.90;;;;;;5055432;28;20201;-69
2022/10/23 03:49:17;;;;;;;5.90;4.37;;;12.30;99.90;;;;;;5055252;28;20689;-70
2022/10/23 03:51:50;;;;;;;8.00;3.47;;;12.30;99.90;;;;;;5055296;28;20248;-69
2022/10/23 03:54:16;;;;;;;4.80;3.07;;;12.30;99.90;;;;;;5055000;28;20159;-69
2022/10/23 03:56:41;;;;;;;9.40;3.67;;;12.40;99.90;;;;;;5063924;28;20474;-70
2022/10/23 03:59:07;;;;;;;5.40;4.13;;;12.40;99.90;;;;;;5075155;28;20189;-70
2022/10/23 04:01:32;;;;;;;4.33;3.37;;;12.40;99.90;;;;;;5075218;28;20202;-70
2022/10/23 04:03:58;;;;;;;7.00;3.77;;;12.40;99.90;;;;;;5074965;28;20642;-70
2022/10/23 04:06:23;;;;;;;5.80;2.83;;;12.40;99.90;;;;;;5074780;28;20218;-69
2022/10/23 04:08:49;;;;;;;5.40;4.50;;;12.40;99.90;;;;;;5065740;28;20195;-69
2022/10/23 04:11:14;;;;;;;8.20;3.30;;;12.40;99.90;;;;;;5054902;28;20199;-70
2022/10/23 04:13:40;;;;;;;16.60;5.30;;;12.40;99.90;;;;;;5054962;28;20159;-70
2022/10/23 04:16:05;;;;;;;4.47;3.40;;;12.40;99.90;;;;;;5054596;28;20190;-70
2022/10/23 04:18:31;;;;;;;4.80;3.17;;;12.40;99.90;;;;;;5054773;28;20267;-70
2022/10/23 04:20:56;;;;;;;3.73;3.00;;;12.40;99.90;;;;;;5062988;28;20658;-69
2022/10/23 04:23:22;;;;;;;6.50;4.20;;;12.40;99.90;;;;;;5073423;28;20170;-70
2022/10/23 04:25:47;;;;;;;6.13;2.47;;;12.40;99.90;;;;;;5073073;28;20177;-70
2022/10/23 04:28:13;;;;;;;3.83;2.97;;;12.40;99.90;;;;;;5075210;28;20193;-69
2022/10/23 04:30:39;;;;;;;6.50;4.03;;;12.40;99.90;;;;;;5075163;28;20193;-69
2022/10/23 04:33:04;;;;;;;6.30;3.43;;;12.40;99.90;;;;;;5065205;28;20171;-69
2022/10/23 04:35:30;;;;;;;11.57;3.40;;;12.30;99.90;;;;;;5054276;28;20186;-70
2022/10/23 04:37:55;;;;;;;7.93;3.80;;;12.30;99.90;;;;;;5055418;28;20163;-69
2022/10/23 04:40:21;;;;;;;4.63;3.07;;;12.30;99.90;;;;;;5055137;28;20625;-69
2022/10/23 04:42:46;;;;;;;7.17;4.73;;;12.30;99.90;;;;;;5055392;28;20650;-69
2022/10/23 04:45:12;;;;;;;4.50;3.83;;;12.30;99.90;;;;;;5066872;28;20797;-70
2022/10/23 04:47:37;;;;;;;5.20;3.97;;;12.30;99.90;;;;;;5075228;28;20162;-69
2022/10/23 04:50:03;;;;;;;7.40;5.00;;;12.30;99.90;;;;;;5074849;28;20181;-69
2022/10/23 04:52:29;;;;;;;12.73;3.93;;;12.30;99.90;;;;;;5059373;28;20205;-69
2022/10/23 04:54:54;;;;;;;10.10;5.90;;;12.20;99.90;;;;;;5054808;28;20401;-69
2022/10/23 04:57:20;;;;;;;7.67;4.43;;;12.20;99.90;;;;;;5054812;28;20246;-69
2022/10/23 04:59:46;;;;;;;7.67;3.27;;;12.20;99.90;;;;;;5086836;28;20191;-69
2022/10/23 05:02:11;;;;;;;5.93;3.83;;;12.20;99.90;;;;;;5072253;28;20174;-70
2022/10/23 05:04:37;;;;;;;7.33;5.30;;;12.20;99.90;;;;;;5073311;28;20174;-69
2022/10/23 05:07:02;;;;;;;6.40;5.00;;;12.20;99.90;;;;;;5074819;28;20173;-69
2022/10/23 05:09:28;;;;;;;7.63;3.63;;;12.10;99.90;;;;;;5075047;28;20607;-69
2022/10/23 05:11:53;;;;;;;4.60;3.17;;;12.10;99.90;;;;;;5059618;28;20213;-69
2022/10/23 05:14:19;;;;;;;6.30;3.60;;;12.10;99.90;;;;;;5054666;28;20180;-69
2022/10/23 05:16:50;;;;;;;9.83;3.83;;;12.00;99.90;;;;;;5054332;28;20159;-70
2022/10/23 05:19:27;;;;;;;3.33;2.90;;;12.00;99.90;;;;;;5054239;28;20179;-69
2022/10/23 05:21:54;;;;;;;3.80;3.40;;;12.00;99.90;;;;;;5054085;28;20427;-70
2022/10/23 05:24:24;;;;;;;3.90;3.33;;;12.00;99.90;;;;;;5070710;28;20420;-70
2022/10/23 05:26:51;;;;;;;4.80;3.33;;;12.00;99.90;;;;;;5073415;28;20404;-70
2022/10/23 05:29:18;;;;;;;3.87;3.47;;;11.90;99.90;;;;;;5073356;28;20425;-70
2022/10/23 05:31:44;;;;;;;4.40;2.97;;;11.90;99.90;;;;;;5073360;28;20947;-70
2022/10/23 05:34:13;;;;;;;4.03;2.80;;;11.90;99.90;;;;;;5072974;28;20408;-69
2022/10/23 05:36:39;;;;;;;4.23;2.90;;;11.90;99.90;;;;;;5033417;28;20637;-70
2022/10/23 05:39:04;;;;;;;5.77;3.73;;;11.80;99.90;;;;;;5033305;28;20421;-69
2022/10/23 05:41:30;;;;;;;3.67;2.60;;;11.80;99.90;;;;;;5033307;28;20175;-70
2022/10/23 05:43:55;;;;;;;3.90;2.10;;;11.80;99.90;;;;;;5033207;28;20168;-69
2022/10/23 05:46:22;;;;;;;4.40;3.23;;;11.70;99.90;;;;;;5040380;28;20198;-69
2022/10/23 05:48:51;;;;;;;2.97;2.60;;;11.70;99.90;;;;;;5072956;28;20202;-70
2022/10/23 05:51:21;;;;;;;5.83;3.17;;;11.70;99.90;;;;;;5073082;28;20813;-70
2022/10/23 05:53:48;;;;;;;5.20;2.80;;;11.80;99.90;;;;;;5073002;28;20469;-69
2022/10/23 05:56:13;;;;;;;4.53;2.60;;;11.80;99.90;;;;;;5071291;28;20408;-69
2022/10/23 05:58:39;;;;;;;4.63;2.90;;;11.80;99.90;;;;;;5064877;28;20433;-69
2022/10/23 06:01:09;;;;;;;16.90;3.70;;;11.80;99.90;;;;;;5052863;28;20659;-70
2022/10/23 06:03:36;;;;;;;6.77;2.27;;;11.80;99.90;;;;;;5052819;28;20644;-70
2022/10/23 06:06:02;;;;;;;4.50;3.20;;;11.80;99.90;;;;;;5052433;28;20411;-70
2022/10/23 06:08:29;;;;;;;3.10;2.50;;;11.80;99.90;;;;;;5052744;28;20787;-70
2022/10/23 06:10:55;;;;;;;4.60;3.10;;;11.80;99.90;;;;;;5061666;28;20949;-70
2022/10/23 06:13:20;;;;;;;7.53;2.60;;;11.80;99.90;;;;;;5071205;28;20561;-69
2022/10/23 06:15:46;;;;;;;4.63;2.90;;;11.80;99.90;;;;;;5072385;28;20158;-69
2022/10/23 06:18:11;;;;;;;8.07;3.07;;;11.80;99.90;;;;;;5064938;28;20187;-70
2022/10/23 06:20:38;;;;;;;4.43;2.20;;;11.80;99.90;;;;;;5052678;28;20171;-69
2022/10/23 06:23:05;;;;;;;5.80;3.10;;;11.90;99.90;;;;;;5052503;28;20713;-71
2022/10/23 06:25:30;;;;;;;3.60;2.63;;;12.00;99.90;;;;;;5052109;28;20409;-70
2022/10/23 06:27:56;;;;;;;2.53;2.33;;;12.00;99.90;;;;;;5054510;28;20439;-70
2022/10/23 06:30:21;;;;;;;5.20;2.77;;;12.10;99.90;;;;;;5070979;28;20174;-71
2022/10/23 06:32:47;;;;;;;4.20;2.40;;;12.10;99.90;;;;;;5072494;28;20200;-69
2022/10/23 06:35:12;;;;;;;3.00;2.33;;;12.20;99.90;;;;;;5072591;28;20166;-69
2022/10/23 06:37:38;;;;;;;2.87;2.07;;;12.20;99.90;;;;;;5065764;28;20698;-69
2022/10/23 06:40:05;;;;;;;3.93;3.00;;;12.30;99.90;;;;;;5033085;28;20269;-69
2022/10/23 06:42:30;;;;;;;2.63;2.10;;;12.40;99.90;;;;;;5032110;28;20661;-69
2022/10/23 06:44:56;;;;;;;33.67;3.80;;;12.40;99.90;;;;;;5031940;28;20486;-69
2022/10/23 06:47:21;;;;;;;4.70;2.40;;;12.50;99.90;;;;;;5033133;28;20175;-69
2022/10/23 06:49:47;;;;;;;12.70;3.20;;;12.60;99.90;;;;;;5051884;28;20206;-69
2022/10/23 06:52:12;;;;;;;3.77;2.90;;;12.60;99.90;;;;;;5051931;28;20217;-69
2022/10/23 06:54:38;;;;;;;2.50;1.73;;;12.70;99.90;;;;;;5051821;28;20663;-70
2022/10/23 06:57:03;;;;;;;3.17;2.60;;;12.80;99.90;;;;;;5050663;28;20175;-70
2022/10/23 06:59:29;;;;;;;3.03;2.50;;;12.80;99.90;;;;;;5031742;28;20194;-70
2022/10/23 07:01:54;;;;;;;6.30;2.87;;;12.90;99.90;;;;;;5031993;28;20182;-69
2022/10/23 07:04:20;;;;;;;4.93;3.07;;;12.90;99.90;;;;;;5032435;28;20191;-70
2022/10/23 07:06:45;;;;;;;3.40;3.10;;;13.00;99.90;;;;;;5032138;28;20269;-69
2022/10/23 07:09:11;;;;;;;7.37;3.33;;;13.00;99.90;;;;;;5082365;28;20622;-70
2022/10/23 07:11:36;;;;;;;3.20;2.30;;;13.10;99.90;;;;;;5051813;28;20285;-71
2022/10/23 07:14:02;;;;;;;8.03;3.27;;;13.10;99.90;;;;;;5051853;28;20240;-70
2022/10/23 07:16:27;;;;;;;4.00;2.60;;;13.10;99.90;;;;;;5051588;28;20174;-70
2022/10/23 07:18:58;;;;;;;6.90;3.43;;;13.20;99.90;;;;;;5049878;28;20248;-70
2022/10/23 07:21:25;;;;;;;4.60;3.40;;;13.30;99.90;;;;;;5031517;28;20242;-70
2022/10/23 07:23:50;;;;;;;5.27;2.60;;;13.40;99.90;;;;;;5031886;28;20407;-71
2022/10/23 07:26:16;;;;;;;9.33;3.03;;;13.40;99.90;;;;;;5031554;28;20525;-71
2022/10/23 07:28:45;;;;;;;4.47;3.17;;;13.60;99.90;;;;;;5031768;28;20191;-70
2022/10/23 07:31:11;;;;;;;5.37;2.53;;;13.70;99.90;;;;;;5036378;28;20213;-70
2022/10/23 07:33:37;;;;;;;2.97;2.40;;;13.80;99.90;;;;;;5051639;28;20495;-70
2022/10/23 07:36:04;;;;;;;3.03;2.50;;;13.90;99.90;;;;;;5051444;28;20525;-70
2022/10/23 07:38:30;;;;;;;3.90;2.60;;;14.00;99.90;;;;;;5051522;28;20265;-71
2022/10/23 07:40:58;;;;;;;5.77;2.47;;;14.10;99.90;;;;;;5051672;28;20488;-70
2022/10/23 07:43:24;;;;;;;3.17;2.60;;;14.10;99.90;;;;;;5048357;28;20175;-70
2022/10/23 07:45:49;;;;;;;3.93;2.77;;;14.20;99.90;;;;;;5031858;28;20406;-71
2022/10/23 07:48:15;;;;;;;4.63;2.67;;;14.30;99.90;;;;;;5031742;28;20428;-70
2022/10/23 07:50:41;;;;;;;5.00;3.00;;;14.40;99.90;;;;;;5032173;28;20188;-70
2022/10/23 07:53:16;;;;;;;3.77;3.00;;;14.40;99.90;;;;;;5032302;28;20895;-70
2022/10/23 07:55:42;;;;;;;2.13;1.80;;;14.50;99.90;;;;;;5039812;28;20194;-69
2022/10/23 07:58:07;;;;;;;5.23;3.43;;;14.60;99.90;;;;;;5051272;28;20468;-69
2022/10/23 08:00:33;;;;;;;7.23;2.97;;;14.70;99.90;;;;;;5051433;28;20172;-70
2022/10/23 08:02:58;;;;;;;8.27;5.27;;;14.80;99.90;;;;;;5051419;28;20174;-70
2022/10/23 08:05:24;;;;;;;7.73;2.73;;;15.00;99.90;;;;;;5051159;28;20639;-70
2022/10/23 08:07:50;;;;;;;3.90;2.20;;;15.20;99.90;;;;;;5040131;28;20250;-70
2022/10/23 08:10:15;;;;;;;3.73;2.30;;;15.40;99.90;;;;;;5032250;28;20264;-70
2022/10/23 08:12:41;;;;;;;6.00;2.43;;;15.60;99.90;;;;;;5035027;28;20285;-70
2022/10/23 08:15:07;;;;;;;4.70;2.33;;;15.80;99.90;;;;;;5034743;28;20174;-72
2022/10/23 08:17:32;;;;;;;2.60;1.40;;;15.90;99.90;;;;;;5074190;28;20166;-70
2022/10/23 08:19:58;;;;;;;2.37;1.80;;;15.80;99.90;;;;;;5053281;28;20444;-71
2022/10/23 08:22:23;;;;;;;3.87;2.47;;;16.00;99.90;;;;;;5054834;28;20245;-71
2022/10/23 08:24:49;;;;;;;4.80;2.10;;;16.10;99.90;;;;;;5054581;28;20561;-70
2022/10/23 08:27:14;;;;;;;2.07;1.87;;;16.20;99.90;;;;;;5055203;28;20636;-70
2022/10/23 08:29:40;;;;;;;5.50;2.80;;;16.20;99.90;;;;;;5048930;28;20226;-70
2022/10/23 08:32:05;;;;;;;3.00;1.90;;;16.20;99.90;;;;;;5034678;28;20205;-71
2022/10/23 08:34:31;;;;;;;4.50;2.00;;;16.40;99.90;;;;;;5034553;28;20531;-70
2022/10/23 08:36:57;;;;;;;3.43;1.37;;;16.70;99.90;;;;;;5034614;28;20229;-68
2022/10/23 08:39:22;;;;;;;2.57;1.97;;;17.20;99.90;;;;;;5046640;28;20229;-69
2022/10/23 08:41:50;;;;;;;4.17;2.00;;;17.70;99.90;;;;;;5054817;28;20195;-69
2022/10/23 08:44:46;;;;;;;2.60;1.90;;;18.10;99.90;;;;;;5054375;28;20212;-68
2022/10/23 08:47:22;;;;;;;1.80;1.50;;;18.20;99.90;;;;;;5054464;28;20910;-68
2022/10/23 08:49:55;;;;;;;4.63;2.30;;;18.20;99.90;;;;;;5071889;28;20453;-69
2022/10/23 08:52:28;;;;;;;13.20;2.00;;;18.30;99.90;;;;;;5034304;28;20458;-69
2022/10/23 08:55:14;;;;;;;2.40;1.90;;;18.50;99.90;;;;;;5034421;28;20820;-69
2022/10/23 08:57:57;;;;;;;2.63;1.53;;;18.70;99.90;;;;;;5034675;28;20418;-69
2022/10/23 09:00:23;;;;;;;2.87;1.90;;;19.00;99.90;;;;;;5035748;28;20403;-69
2022/10/23 09:02:51;;;;;;;2.53;1.47;;;19.40;99.90;;;;;;5034969;28;20915;-69
2022/10/23 09:05:25;;;;;;;2.40;1.87;;;19.90;99.90;;;;;;5033816;28;20167;-69
2022/10/23 09:08:16;;;;;;;2.30;1.53;;;20.40;99.90;;;;;;5035524;28;20759;-70
2022/10/23 09:11:10;;;;;;;3.63;1.87;;;21.10;99.90;;;;;;5035606;28;20399;-69
2022/10/23 09:13:55;;;;;;;2.90;1.60;;;21.50;99.90;;;;;;5045558;28;20471;-68
2022/10/23 09:16:36;;;;;;;4.90;1.80;;;22.10;99.90;;;;;;5085975;28;20471;-69
2022/10/23 09:19:09;;;;;;;2.50;1.67;;;22.10;99.90;;;;;;5053749;28;20433;-68
2022/10/23 09:21:35;;;;;;;2.97;2.23;;;21.90;99.90;;;;;;5053661;28;20846;-69
2022/10/23 09:24:00;;;;;;;2.23;1.70;;;21.40;99.90;;;;;;5054038;28;20433;-68
2022/10/23 09:26:26;;;;;;;2.10;1.63;;;21.20;99.90;;;;;;5038624;28;20532;-69
2022/10/23 09:29:01;;;;;;;1.77;1.37;;;21.00;99.90;;;;;;5034239;28;20249;-69
2022/10/23 09:31:26;;;;;;;6.43;2.23;;;21.00;99.90;;;;;;5034439;28;20195;-69
2022/10/23 09:34:00;;;;;;;5.53;1.87;;;21.20;99.90;;;;;;5033769;28;20807;-69
2022/10/23 09:36:28;;;;;;;3.53;1.57;;;21.80;99.90;;;;;;5034281;28;20233;-69
2022/10/23 09:38:55;;;;;;;4.67;1.50;;;22.60;99.90;;;;;;5049158;28;20945;-69
2022/10/23 09:41:35;;;;;;;4.53;2.13;;;22.90;99.90;;;;;;5053894;28;20488;-69
2022/10/23 09:44:07;;;;;;;4.87;1.63;;;23.00;99.90;;;;;;5053721;28;20768;-69
2022/10/23 09:46:53;;;;;;;1.97;1.43;;;22.90;99.90;;;;;;5053125;28;20405;-68
2022/10/23 09:49:30;;;;;;;2.63;1.60;;;22.50;99.90;;;;;;5052045;28;20441;-69
2022/10/23 09:52:02;;;;;;;3.23;2.47;;;21.90;99.90;;;;;;5033985;28;20449;-70
2022/10/23 09:54:30;;;;;;;1.63;1.27;;;21.50;99.90;;;;;;5034090;28;20403;-70
2022/10/23 09:57:01;;;;;;;3.43;2.10;;;20.90;99.90;;;;;;5033603;28;20489;-68
2022/10/23 09:59:31;;;;;;;2.93;1.83;;;20.60;99.90;;;;;;5033532;28;20472;-69
2022/10/23 10:01:59;;;;;;;2.00;1.70;;;20.40;99.90;;;;;;5036832;28;20479;-69
2022/10/23 10:04:37;;;;;;;6.03;1.57;;;20.00;99.90;;;;;;5032477;28;20425;-69
2022/10/23 10:07:14;;;;;;;2.63;1.80;;;19.80;99.90;;;;;;5033051;28;20398;-69
2022/10/23 10:09:40;;;;;;;2.90;1.60;;;19.60;99.90;;;;;;5064740;28;20425;-71
2022/10/23 10:12:22;;;;;;;3.53;1.50;;;19.40;99.90;;;;;;5066018;28;20507;-69
2022/10/23 10:14:53;;;;;;;2.27;1.20;;;19.20;99.90;;;;;;5052612;28;20212;-70
2022/10/23 10:18:00;;;;;;;4.77;1.57;;;19.10;99.90;;;;;;5052773;28;20755;-70
2022/10/23 10:20:43;;;;;;;4.27;1.50;;;19.00;99.90;;;;;;5052790;28;20770;-69
2022/10/23 10:23:16;;;;;;;2.40;1.63;;;19.00;99.90;;;;;;5066884;28;20771;-69
2022/10/23 10:25:49;;;;;;;1.50;1.13;;;19.00;99.90;;;;;;5032398;28;20890;-69
2022/10/23 10:28:49;;;;;;;6.07;1.87;;;18.90;99.90;;;;;;5032529;28;20501;-68
2022/10/23 10:31:14;;;;;;;1.60;1.27;;;18.80;99.90;;;;;;5033043;28;20434;-69
2022/10/23 10:34:11;;;;;;;2.13;1.40;;;18.70;99.90;;;;;;5052022;28;20405;-70
2022/10/23 10:36:45;;;;;;;3.70;1.77;;;18.60;99.90;;;;;;5052061;28;20190;-69
2022/10/23 10:39:21;;;;;;;2.43;1.20;;;18.50;99.90;;;;;;5052635;28;20902;-69
2022/10/23 10:41:50;;;;;;;3.33;1.60;;;18.30;99.90;;;;;;5043915;28;20424;-68
2022/10/23 10:44:21;;;;;;;2.23;1.50;;;18.30;99.90;;;;;;5032382;28;20403;-68
2022/10/23 10:47:02;;;;;;;1.80;1.40;;;18.30;99.90;;;;;;5032287;28;20411;-68
2022/10/23 10:49:36;;;;;;;4.23;1.37;;;18.20;99.90;;;;;;5032058;28;20442;-68
2022/10/23 10:52:32;;;;;;;2.73;1.97;;;18.10;99.90;;;;;;5054769;28;21021;-69
2022/10/23 10:55:09;;;;;;;3.20;1.40;;;18.10;99.90;;;;;;5032104;28;20409;-68
2022/10/23 10:57:42;;;;;;;2.93;1.47;;;18.10;99.90;;;;;;5032507;28;20871;-68
2022/10/23 11:00:17;;;;;;;1.50;1.20;;;18.00;99.90;;;;;;5032157;28;20549;-68
2022/10/23 11:02:51;;;;;;;3.97;1.50;;;18.00;99.90;;;;;;5032068;28;20413;-68
2022/10/23 11:05:42;;;;;;;5.40;1.70;;;18.00;99.90;;;;;;5031648;28;20834;-68
2022/10/23 11:08:35;;;;;;;1.80;1.33;;;18.00;99.90;;;;;;5031948;28;20956;-68
2022/10/23 11:11:15;;;;;;;2.27;1.27;;;17.90;99.90;;;;;;5063985;28;20572;-69
2022/10/23 11:13:43;;;;;;;4.20;1.83;;;17.70;99.90;;;;;;5031726;28;20408;-68
2022/10/23 11:16:23;;;;;;;2.40;1.73;;;17.60;99.90;;;;;;5042253;28;20425;-68
2022/10/23 11:19:03;;;;;;;8.20;1.70;;;17.50;99.90;;;;;;5051482;28;20427;-69
2022/10/23 11:21:33;;;;;;;1.83;1.30;;;17.40;99.90;;;;;;5051695;28;20401;-69
2022/10/23 11:24:38;;;;;;;3.67;1.97;;;17.20;99.90;;;;;;5083978;28;20410;-68
2022/10/23 11:27:25;;;;;;;4.83;1.47;;;17.00;99.90;;;;;;5033957;28;20516;-68
2022/10/23 11:30:27;;;;;;;2.13;1.77;;;16.80;99.90;;;;;;5031727;28;20417;-68
2022/10/23 11:33:05;;;;;;;1.80;1.40;;;16.80;99.90;;;;;;5031875;28;20733;-69
2022/10/23 11:35:47;;;;;;;2.90;1.40;;;16.90;99.90;;;;;;5031922;28;20410;-69
2022/10/23 11:38:12;;;;;;;3.87;2.07;;;17.10;99.90;;;;;;5044115;28;20441;-69
2022/10/23 11:40:51;;;;;;;1.40;1.10;;;17.20;99.90;;;;;;5083880;28;21139;-68
2022/10/23 11:43:35;;;;;;;3.00;1.87;;;17.50;99.90;;;;;;5050474;28;20178;-68
2022/10/23 11:46:30;;;;;;;1.93;1.40;;;18.30;99.90;;;;;;5055248;28;20458;-70
2022/10/23 11:48:56;;;;;;;1.87;1.10;;;19.10;99.90;;;;;;5053035;28;20483;-69
2022/10/23 11:51:39;;;;;;;2.03;1.53;;;19.40;99.90;;;;;;5035352;28;20497;-69
2022/10/23 11:54:05;;;;;;;2.23;1.57;;;19.60;99.90;;;;;;5035487;28;20421;-68
2022/10/23 11:56:32;;;;;;;1.90;1.50;;;20.00;99.90;;;;;;5035631;28;20405;-70
2022/10/23 11:59:16;;;;;;;4.80;1.03;;;20.10;99.90;;;;;;5055164;28;20265;-69
2022/10/23 12:01:44;;;;;;;3.93;1.60;;;20.00;99.90;;;;;;5055384;28;20393;-71
2022/10/23 12:04:12;;;;;;;3.03;1.40;;;20.00;99.90;;;;;;5055567;28;20409;-70
2022/10/23 12:06:48;;;;;;;1.50;1.40;;;20.10;99.90;;;;;;5086408;28;20755;-71
2022/10/23 12:09:36;;;;;;;3.03;1.47;;;20.20;99.90;;;;;;5035061;28;20915;-71
2022/10/23 12:12:08;;;;;;;2.50;1.20;;;20.40;99.90;;;;;;5035386;28;20950;-71
2022/10/23 12:14:35;;;;;;;1.30;1.10;;;20.60;99.90;;;;;;5034988;28;20665;-71
2022/10/23 12:17:17;;;;;;;2.97;1.57;;;20.40;99.90;;;;;;5073981;28;20409;-71
2022/10/23 12:19:50;;;;;;;1.73;1.47;;;20.10;99.90;;;;;;5055034;28;20490;-72
2022/10/23 12:22:18;;;;;;;1.43;1.33;;;19.90;99.90;;;;;;5055147;28;20402;-71
2022/10/23 12:24:55;;;;;;;1.70;1.40;;;19.90;99.90;;;;;;5054814;28;20412;-71
2022/10/23 12:27:44;;;;;;;3.00;1.67;;;19.90;99.90;;;;;;5044929;28;20409;-72
2022/10/23 12:30:18;;;;;;;4.63;2.57;;;19.90;99.90;;;;;;5034903;28;20429;-72
2022/10/23 12:33:00;;;;;;;7.53;1.33;;;19.80;99.90;;;;;;5034556;28;20453;-73
2022/10/23 12:35:57;;;;;;;2.07;1.40;;;19.70;99.90;;;;;;5034706;28;20405;-73
2022/10/23 12:38:25;;;;;;;2.20;1.70;;;19.80;99.90;;;;;;5037892;28;20798;-71
2022/10/23 12:41:09;;;;;;;2.30;1.63;;;19.60;99.90;;;;;;5054555;28;20429;-72
2022/10/23 12:43:36;;;;;;;3.23;1.30;;;19.60;99.90;;;;;;5053251;28;20415;-71
2022/10/23 12:46:26;;;;;;;1.50;1.20;;;19.30;99.90;;;;;;5052967;28;20416;-72
2022/10/23 12:48:55;;;;;;;1.70;1.27;;;19.20;99.90;;;;;;5054213;28;20421;-71
2022/10/23 12:51:32;;;;;;;3.10;1.50;;;19.10;99.90;;;;;;5045821;28;20454;-71
2022/10/23 12:53:58;;;;;;;2.80;1.50;;;19.00;99.90;;;;;;5034609;28;20413;-71
2022/10/23 12:56:25;;;;;;;4.70;2.10;;;18.80;99.90;;;;;;5033407;28;20403;-71
2022/10/23 12:58:54;;;;;;;4.17;1.40;;;18.80;99.90;;;;;;5043126;28;20676;-71
2022/10/23 13:01:26;;;;;;;4.03;1.33;;;18.80;99.90;;;;;;5054590;28;20795;-70
2022/10/23 13:03:57;;;;;;;3.27;1.70;;;18.80;99.90;;;;;;5042281;28;20854;-71
2022/10/23 13:06:23;;;;;;;3.10;1.97;;;18.70;99.90;;;;;;5033955;28;20395;-71